createdAt,value
2022-11-01T00:00:52.306Z,11.73
2022-11-01T00:03:25.249Z,12.68
2022-11-01T00:06:24.369Z,11.77
2022-11-01T00:08:59.427Z,11.07
2022-11-01T00:11:31.142Z,11.10
2022-11-01T00:17:17.245Z,10.88
2022-11-01T00:20:14.197Z,10.82
2022-11-01T00:22:43.026Z,12.05
2022-11-01T00:25:10.768Z,12.65
2022-11-01T00:27:39.549Z,13.15
2022-11-01T00:30:27.801Z,13.07
2022-11-01T00:32:57.967Z,12.70
2022-11-01T00:35:27.667Z,12.13
2022-11-01T00:37:57.609Z,12.20
2022-11-01T00:40:29.700Z,11.45
2022-11-01T00:42:57.414Z,12.30
2022-11-01T00:45:34.569Z,13.77
2022-11-01T00:48:08.714Z,12.68
2022-11-01T00:50:49.609Z,12.52
2022-11-01T00:53:35.886Z,11.45
2022-11-01T00:56:11.289Z,12.35
2022-11-01T00:58:51.279Z,12.05
2022-11-01T01:01:38.927Z,12.13
2022-11-01T01:04:08.061Z,12.40
2022-11-01T01:06:37.958Z,14.02
2022-11-01T01:09:12.728Z,12.98
2022-11-01T01:11:40.621Z,11.63
2022-11-01T01:14:09.220Z,11.55
2022-11-01T01:16:56.317Z,12.68
2022-11-01T01:19:27.368Z,11.55
2022-11-01T01:21:59.220Z,12.65
2022-11-01T01:24:33.908Z,11.35
2022-11-01T01:27:04.964Z,12.15
2022-11-01T01:29:38.879Z,12.05
2022-11-01T01:32:10.622Z,12.23
2022-11-01T01:34:52.146Z,12.70
2022-11-01T01:39:54.837Z,11.40
2022-11-01T01:43:06.009Z,11.93
2022-11-01T01:45:59.890Z,11.80
2022-11-01T01:48:31.041Z,12.68
2022-11-01T01:51:03.788Z,12.32
2022-11-01T01:53:34.422Z,12.48
2022-11-01T01:56:29.080Z,11.88
2022-11-01T01:59:29.896Z,12.27
2022-11-01T02:02:00.473Z,12.27
2022-11-01T02:05:06.612Z,11.38
2022-11-01T02:07:41.177Z,12.45
2022-11-01T02:10:18.211Z,11.90
2022-11-01T02:13:00.312Z,12.48
2022-11-01T02:15:47.954Z,13.30
2022-11-01T02:18:16.009Z,11.10
2022-11-01T02:21:01.666Z,13.07
2022-11-01T02:23:34.304Z,12.82
2022-11-01T02:26:02.580Z,12.98
2022-11-01T02:28:43.745Z,12.57
2022-11-01T02:31:47.688Z,11.57
2022-11-01T02:34:32.205Z,11.52
2022-11-01T02:40:18.130Z,10.50
2022-11-01T02:42:55.428Z,11.52
2022-11-01T02:45:43.332Z,12.30
2022-11-01T02:48:25.141Z,14.82
2022-11-01T02:51:01.967Z,12.18
2022-11-01T02:53:31.884Z,12.85
2022-11-01T02:56:34.780Z,12.43
2022-11-01T02:59:02.782Z,13.45
2022-11-01T03:01:51.052Z,14.38
2022-11-01T03:04:28.929Z,12.38
2022-11-01T03:07:16.414Z,13.38
2022-11-01T03:09:47.204Z,11.95
2022-11-01T03:12:21.709Z,12.10
2022-11-01T03:15:24.897Z,11.88
2022-11-01T03:18:13.671Z,11.88
2022-11-01T03:20:49.022Z,11.50
2022-11-01T03:23:37.159Z,11.60
2022-11-01T03:26:10.246Z,11.23
2022-11-01T03:28:40.392Z,13.32
2022-11-01T03:31:30.616Z,11.75
2022-11-01T03:34:34.576Z,11.65
2022-11-01T03:37:08.097Z,12.27
2022-11-01T03:40:02.957Z,10.98
2022-11-01T03:42:40.698Z,11.57
2022-11-01T03:45:25.854Z,12.45
2022-11-01T03:48:06.873Z,10.98
2022-11-01T03:50:35.261Z,11.65
2022-11-01T03:53:09.376Z,11.40
2022-11-01T03:55:43.125Z,11.27
2022-11-01T03:58:17.523Z,9.95
2022-11-01T04:04:03.345Z,10.27
2022-11-01T04:06:58.060Z,11.20
2022-11-01T04:09:35.633Z,10.93
2022-11-01T04:12:18.756Z,9.73
2022-11-01T04:15:08.239Z,10.90
2022-11-01T04:17:54.966Z,10.43
2022-11-01T04:20:34.883Z,10.10
2022-11-01T04:23:09.174Z,9.35
2022-11-01T04:25:36.850Z,9.85
2022-11-01T04:28:04.750Z,8.55
2022-11-01T04:30:35.665Z,10.07
2022-11-01T04:33:06.354Z,10.50
2022-11-01T04:35:41.462Z,10.60
2022-11-01T04:38:18.747Z,10.60
2022-11-01T04:40:57.957Z,11.02
2022-11-01T04:43:39.020Z,9.93
2022-11-01T04:46:16.295Z,10.20
2022-11-01T04:48:50.640Z,9.57
2022-11-01T04:54:36.671Z,10.30
2022-11-01T04:57:26.328Z,10.20
2022-11-01T04:59:54.839Z,11.82
2022-11-01T05:02:38.445Z,11.02
2022-11-01T05:05:12.593Z,10.73
2022-11-01T05:07:40.607Z,12.00
2022-11-01T05:10:19.169Z,10.35
2022-11-01T05:12:56.993Z,10.05
2022-11-01T05:15:26.032Z,11.73
2022-11-01T05:18:09.241Z,11.18
2022-11-01T05:20:46.635Z,9.57
2022-11-01T05:23:16.572Z,8.13
2022-11-01T05:25:44.246Z,7.78
2022-11-01T05:28:15.739Z,8.40
2022-11-01T05:33:42.578Z,7.30
2022-11-01T05:36:16.567Z,7.50
2022-11-01T05:38:57.954Z,7.57
2022-11-01T05:41:45.958Z,6.72
2022-11-01T05:44:15.982Z,6.90
2022-11-01T05:46:56.094Z,7.55
2022-11-01T05:49:26.846Z,7.75
2022-11-01T05:52:01.207Z,6.55
2022-11-01T05:55:12.041Z,6.93
2022-11-01T05:57:44.921Z,6.70
2022-11-01T06:00:13.440Z,6.93
2022-11-01T06:02:59.617Z,7.78
2022-11-01T06:05:30.306Z,7.60
2022-11-01T06:08:01.414Z,7.60
2022-11-01T06:10:32.038Z,6.22
2022-11-01T06:13:35.747Z,6.45
2022-11-01T06:16:17.880Z,6.65
2022-11-01T06:18:48.993Z,6.57
2022-11-01T06:21:30.213Z,8.15
2022-11-01T06:24:05.469Z,6.40
2022-11-01T06:26:52.246Z,6.10
2022-11-01T06:29:26.302Z,6.53
2022-11-01T06:32:04.805Z,6.50
2022-11-01T06:34:42.237Z,6.90
2022-11-01T06:37:17.052Z,6.85
2022-11-01T06:39:55.270Z,7.30
2022-11-01T06:42:30.508Z,7.30
2022-11-01T06:45:17.249Z,7.40
2022-11-01T06:47:48.507Z,7.97
2022-11-01T06:50:16.541Z,7.68
2022-11-01T06:53:00.281Z,6.60
2022-11-01T06:55:44.692Z,6.30
2022-11-01T06:58:13.568Z,6.20
2022-11-01T07:00:41.470Z,7.53
2022-11-01T07:03:18.755Z,5.50
2022-11-01T07:05:50.684Z,6.45
2022-11-01T07:08:18.519Z,6.25
2022-11-01T07:10:51.514Z,6.25
2022-11-01T07:13:20.404Z,6.15
2022-11-01T07:15:48.283Z,5.72
2022-11-01T07:18:17.274Z,5.25
2022-11-01T07:23:37.245Z,5.05
2022-11-01T07:26:05.210Z,4.85
2022-11-01T07:29:04.453Z,5.03
2022-11-01T07:32:00.895Z,4.75
2022-11-01T07:34:36.220Z,4.35
2022-11-01T07:37:05.702Z,4.47
2022-11-01T07:39:46.795Z,4.32
2022-11-01T07:42:20.942Z,4.50
2022-11-01T07:44:50.492Z,4.50
2022-11-01T07:47:20.941Z,4.45
2022-11-01T07:49:56.935Z,7.82
2022-11-01T07:52:36.214Z,5.40
2022-11-01T07:55:10.432Z,4.80
2022-11-01T07:58:16.438Z,6.18
2022-11-01T08:00:50.647Z,6.65
2022-11-01T08:06:37.197Z,6.53
2022-11-01T08:09:12.064Z,5.93
2022-11-01T08:11:39.828Z,6.80
2022-11-01T08:14:13.811Z,6.60
2022-11-01T08:17:03.461Z,6.47
2022-11-01T08:19:33.413Z,5.70
2022-11-01T08:22:01.532Z,6.85
2022-11-01T08:24:30.333Z,5.75
2022-11-01T08:27:25.043Z,6.05
2022-11-01T08:30:08.696Z,6.13
2022-11-01T08:33:04.011Z,5.90
2022-11-01T08:35:33.934Z,6.00
2022-11-01T08:38:07.087Z,5.70
2022-11-01T08:40:36.847Z,5.63
2022-11-01T08:43:15.603Z,6.18
2022-11-01T08:45:49.333Z,6.30
2022-11-01T08:48:19.315Z,7.18
2022-11-01T08:50:49.172Z,7.50
2022-11-01T08:53:26.412Z,6.75
2022-11-01T08:56:10.486Z,7.82
2022-11-01T08:59:00.160Z,8.60
2022-11-01T09:01:41.468Z,9.38
2022-11-01T09:06:40.595Z,8.85
2022-11-01T09:09:23.927Z,9.95
2022-11-01T09:12:24.805Z,11.65
2022-11-01T09:15:10.670Z,13.43
2022-11-01T09:17:47.938Z,14.07
2022-11-01T09:20:29.454Z,12.38
2022-11-01T09:26:31.312Z,12.68
2022-11-01T09:28:59.805Z,12.35
2022-11-01T09:31:29.895Z,13.55
2022-11-01T09:33:59.975Z,15.20
2022-11-01T09:36:36.014Z,16.58
2022-11-01T09:39:05.154Z,18.10
2022-11-01T09:41:35.295Z,15.50
2022-11-01T09:44:24.043Z,14.27
2022-11-01T09:47:14.633Z,14.80
2022-11-01T09:50:02.724Z,13.05
2022-11-01T09:52:39.170Z,13.25
2022-11-01T09:55:17.295Z,12.55
2022-11-01T09:58:05.391Z,14.13
2022-11-01T10:00:54.634Z,13.25
2022-11-01T10:03:41.973Z,12.80
2022-11-01T10:06:37.184Z,11.07
2022-11-01T10:09:42.440Z,9.45
2022-11-01T10:12:19.619Z,8.43
2022-11-01T10:15:11.188Z,9.07
2022-11-01T10:35:33.758Z,11.57
2022-11-01T10:38:22.846Z,12.85
2022-11-01T10:41:00.903Z,11.98
2022-11-01T10:44:01.138Z,12.65
2022-11-01T10:46:47.113Z,13.05
2022-11-01T10:50:05.289Z,13.57
2022-11-01T12:03:44.170Z,8.52
2022-11-01T12:54:20.083Z,10.77
2022-11-01T12:57:01.153Z,10.05
2022-11-01T12:59:38.862Z,11.57
2022-11-01T13:02:29.459Z,10.70
2022-11-01T13:05:01.269Z,11.23
2022-11-01T13:07:34.475Z,10.52
2022-11-01T13:10:09.264Z,10.07
2022-11-01T13:12:56.280Z,9.80
2022-11-01T13:15:43.196Z,10.85
2022-11-01T13:18:46.063Z,10.65
2022-11-01T13:21:35.610Z,10.98
2022-11-01T13:24:13.447Z,10.50
2022-11-01T13:27:01.269Z,10.10
2022-11-01T13:29:55.456Z,11.10
2022-11-01T13:32:25.423Z,10.70
2022-11-01T13:34:58.664Z,10.90
2022-11-01T13:37:44.516Z,10.38
2022-11-01T13:40:17.904Z,11.57
2022-11-01T13:46:07.506Z,10.25
2022-11-01T13:48:56.118Z,10.35
2022-11-01T13:51:35.437Z,10.40
2022-11-01T13:54:34.857Z,10.77
2022-11-01T14:03:54.252Z,9.93
2022-11-01T14:58:04.375Z,11.02
2022-11-01T15:07:14.432Z,11.18
2022-11-01T15:16:40.846Z,11.90
2022-11-01T15:29:21.447Z,10.63
2022-11-01T15:35:45.301Z,11.98
2022-11-01T15:48:02.492Z,9.20
2022-11-01T15:51:19.823Z,9.77
2022-11-01T16:04:04.024Z,8.52
2022-11-01T16:10:02.367Z,7.93
2022-11-01T16:12:46.125Z,8.38
2022-11-01T16:15:44.301Z,8.05
2022-11-01T16:18:25.267Z,9.48
2022-11-01T16:21:06.697Z,9.20
2022-11-01T16:23:50.161Z,8.90
2022-11-01T16:26:33.342Z,8.43
2022-11-01T16:29:01.559Z,8.63
2022-11-01T16:31:31.008Z,9.05
2022-11-01T16:34:31.120Z,8.18
2022-11-01T16:37:00.267Z,8.52
2022-11-01T16:39:30.142Z,9.15
2022-11-01T16:42:04.812Z,8.77
2022-11-01T16:44:33.172Z,9.07
2022-11-01T16:47:18.318Z,9.80
2022-11-01T16:49:52.153Z,9.27
2022-11-01T16:52:20.458Z,9.25
2022-11-01T17:57:38.355Z,11.75
2022-11-01T18:03:39.381Z,11.57
2022-11-01T18:06:17.466Z,12.98
2022-11-01T18:08:58.870Z,14.18
2022-11-01T18:11:57.948Z,13.70
2022-11-01T18:18:04.169Z,12.88
2022-11-01T18:20:44.276Z,12.57
2022-11-01T18:23:24.254Z,10.65
2022-11-01T18:26:19.324Z,11.55
2022-11-01T18:28:49.985Z,12.80
2022-11-01T18:31:51.075Z,12.15
2022-11-01T18:37:47.755Z,15.20
2022-11-01T18:40:48.913Z,14.35
2022-11-01T18:43:40.227Z,14.18
2022-11-01T18:52:38.312Z,14.77
2022-11-01T19:04:02.972Z,14.10
2022-11-01T19:44:42.226Z,14.60
2022-11-01T19:47:26.820Z,15.95
2022-11-01T19:50:31.244Z,16.45
2022-11-01T19:53:39.243Z,18.50
2022-11-01T19:56:15.962Z,15.68
2022-11-01T19:58:47.854Z,17.30
2022-11-01T20:01:21.378Z,15.73
2022-11-01T20:04:01.870Z,17.67
2022-11-01T20:06:37.734Z,18.73
2022-11-01T20:18:26.761Z,12.25
2022-11-01T20:21:09.466Z,12.40
2022-11-01T20:40:12.601Z,12.00
2022-11-01T20:43:15.302Z,11.00
2022-11-01T20:46:15.009Z,10.40
2022-11-01T20:49:17.803Z,11.90
2022-11-01T20:54:58.928Z,14.55
2022-11-01T20:57:43.455Z,16.02
2022-11-01T21:07:48.165Z,16.60
2022-11-01T21:16:46.067Z,15.70
2022-11-01T21:19:30.136Z,20.50
2022-11-01T21:22:13.667Z,18.95
2022-11-01T21:34:48.052Z,18.52
2022-11-01T21:52:44.049Z,19.40
2022-11-01T21:55:14.120Z,19.73
2022-11-01T21:57:43.638Z,18.85
2022-11-01T22:00:12.332Z,19.83
2022-11-01T22:03:02.947Z,19.95
2022-11-01T22:05:52.439Z,20.77
2022-11-01T22:08:29.057Z,20.42
2022-11-01T22:11:10.494Z,20.92
2022-11-01T22:14:32.093Z,20.85
2022-11-01T22:17:02.474Z,19.35
2022-11-01T22:19:31.744Z,19.27
2022-11-01T22:22:02.544Z,20.42
2022-11-01T22:24:36.165Z,19.15
2022-11-01T22:31:01.436Z,14.70
2022-11-01T22:40:18.766Z,14.20
2022-11-01T22:42:58.035Z,13.73
2022-11-01T23:04:21.576Z,13.77
2022-11-01T23:07:09.628Z,13.70
2022-11-01T23:09:38.187Z,14.57
2022-11-01T23:12:41.515Z,14.57
2022-11-01T23:15:24.154Z,16.63
2022-11-01T23:17:56.421Z,16.02
2022-11-01T23:50:18.024Z,13.18
2022-11-01T23:56:10.784Z,12.00
2022-11-01T23:58:40.210Z,12.45
